Location Sebastian, FL, US

ob KFLSEBAS1 240910Z AUTO 22000KT OVC095 25/23 A2992 RMK SLPNO 

2017.10.24 0910 UTC
Wind from the SW (218 degrees) at Calm MPH ( KT) gusting to 0.0 MPH (0 KT)
Visibility    Mile(s)
Sky Conditions  overcast
Temperature 76.30 F (25 C)
Dew Point 74.13 F (23 C)
Relative Humidity 93%
Pressure   29.92 in. Hg (1013 hPa)
Rain  0.00 in.
Daily Rain  in.

Station Name  www.kflsebas1.com
Longitude, Latitude  -80.48, 27.8
Elevation 23
Station URL www.kflsebas1.com
Software Type VWS V15.00